Time;durP1;ratioP1;P1;durP2;ratioP2;P2;SDS_P1;SDS_P2;PMS_P1;PMS_P2;Temp;Humidity;BMP_temperature;BMP_pressure;BME280_temperature;BME280_humidity;BME280_pressure;Samples;Min_cycle;Max_cycle;Signal;HPM_P1;HPM_P2
2021/12/05 00:22:46;;;;;;;6.57;1.00;;;;;;;3.33;97.70;97500.91;5088354;28;20052;-70
2021/12/05 00:25:19;;;;;;;4.57;0.70;;;;;;;3.36;97.25;97503.25;5090777;28;20032;-69
2021/12/05 00:27:49;;;;;;;5.72;1.02;;;;;;;3.27;97.06;97506.03;5069109;28;20029;-70
2021/12/05 00:41:11;;;;;;;10.43;1.48;;;;;;;3.33;97.94;97507.13;5063405;28;20230;-70
2021/12/05 00:44:12;;;;;;;8.38;1.02;;;;;;;3.37;96.50;97518.25;5065156;28;20078;-69
2021/12/05 01:14:30;;;;;;;5.78;1.00;;;;;;;3.04;97.12;97524.88;5090804;28;20081;-70
2021/12/05 01:16:57;;;;;;;2.97;1.50;;;;;;;3.04;97.91;97532.06;5078871;28;20059;-70
2021/12/05 01:19:25;;;;;;;5.03;1.15;;;;;;;3.06;97.79;97530.00;5081390;28;20031;-70
2021/12/05 01:21:54;;;;;;;5.88;1.10;;;;;;;3.06;97.27;97530.00;5079967;28;20027;-70
2021/12/05 01:27:59;;;;;;;6.70;1.15;;;;;;;3.19;95.37;97532.03;5073323;28;20047;-70
2021/12/05 01:30:09;;;;;;;2.75;0.98;;;;;;;3.19;95.33;97529.34;5073271;28;20075;-70
2021/12/05 01:32:48;;;;;;;3.80;0.90;;;;;;;3.20;94.44;97525.69;5075603;28;20028;-70
2021/12/05 02:30:59;;;;;;;8.13;1.33;;;;;;;2.76;100.00;97538.06;5088801;28;20044;-70
2021/12/05 02:33:29;;;;;;;10.77;1.58;;;;;;;2.74;100.00;97534.75;5088498;28;20094;-69
2021/12/05 02:36:26;;;;;;;6.93;1.23;;;;;;;2.84;97.87;97540.66;5098023;28;20068;-70
2021/12/05 02:41:34;;;;;;;5.25;1.13;;;;;;;2.87;96.47;97539.44;5092168;28;20092;-70
2021/12/05 02:44:11;;;;;;;3.80;0.95;;;;;;;3.00;96.43;97538.78;5103882;28;20036;-70
2021/12/05 02:46:39;;;;;;;6.15;1.80;;;;;;;2.88;96.71;97540.25;5105929;28;20103;-70
2021/12/05 02:49:09;;;;;;;5.03;2.20;;;;;;;2.85;97.89;97542.28;5079464;28;20397;-70
2021/12/05 02:51:35;;;;;;;9.50;1.30;;;;;;;2.89;97.45;97533.94;5073278;28;20062;-70
2021/12/05 02:56:27;;;;;;;3.20;1.13;;;;;;;2.93;95.95;97544.03;5079444;28;20370;-70
2021/12/05 02:58:57;;;;;;;4.07;0.70;;;;;;;2.94;93.96;97547.56;5076439;28;20030;-70
2021/12/05 03:01:36;;;;;;;5.85;0.52;;;;;;;2.98;93.67;97535.47;5066765;28;20029;-70
2021/12/05 03:04:01;;;;;;;2.20;0.40;;;;;;;2.83;93.18;97532.84;5073840;28;20041;-70
2021/12/05 03:06:31;;;;;;;6.30;0.93;;;;;;;2.85;94.67;97542.28;5073632;28;20387;-70
2021/12/05 03:09:06;;;;;;;5.03;0.93;;;;;;;2.84;95.77;97535.31;5075881;28;20074;-70
2021/12/05 03:11:32;;;;;;;4.55;0.55;;;;;;;2.68;94.62;97524.81;5075962;28;20020;-70
2021/12/05 03:13:58;;;;;;;1.52;0.32;;;;;;;2.83;95.49;97546.19;5073127;28;20027;-70
2021/12/05 03:16:25;;;;;;;3.83;0.52;;;;;;;2.79;97.40;97542.22;5059310;28;20482;-70
2021/12/05 03:18:50;;;;;;;8.75;0.93;;;;;;;2.76;97.17;97542.59;5058368;28;20086;-70
2021/12/05 03:21:16;;;;;;;4.00;1.23;;;;;;;2.63;97.46;97514.69;5065667;28;20024;-70
2021/12/05 03:23:45;;;;;;;2.30;0.63;;;;;;;2.66;97.58;97532.19;5059843;28;20039;-70
2021/12/05 03:26:15;;;;;;;4.90;0.60;;;;;;;2.58;98.69;97535.75;5074390;28;20051;-70
2021/12/05 03:28:40;;;;;;;7.35;0.88;;;;;;;2.52;99.23;97527.69;5083775;28;20044;-70
2021/12/05 03:31:08;;;;;;;4.43;0.90;;;;;;;2.46;100.00;97525.72;5074388;28;20113;-70
2021/12/05 03:33:36;;;;;;;2.50;0.52;;;;;;;2.46;100.00;97523.06;5075135;28;20060;-70
2021/12/05 03:36:03;;;;;;;7.80;0.60;;;;;;;2.37;100.00;97523.16;5078930;28;20020;-70
2021/12/05 03:38:29;;;;;;;5.82;0.60;;;;;;;2.36;100.00;97521.50;5081729;28;20399;-70
2021/12/05 03:40:54;;;;;;;5.00;1.58;;;;;;;2.24;100.00;97495.44;5073689;28;20111;-69
2021/12/05 03:43:20;;;;;;;3.45;1.00;;;;;;;2.33;100.00;97521.88;5080750;28;20021;-70
2021/12/05 03:45:50;;;;;;;4.25;1.30;;;;;;;2.36;100.00;97513.50;5077915;28;20062;-70
2021/12/05 03:48:17;;;;;;;2.75;0.80;;;;;;;2.50;100.00;97511.00;5073880;28;20034;-69
2021/12/05 03:50:45;;;;;;;5.95;1.20;;;;;;;2.60;100.00;97515.06;5076600;28;20024;-70
2021/12/05 03:53:11;;;;;;;6.43;1.08;;;;;;;2.60;100.00;97504.38;5066743;28;20035;-70
2021/12/05 03:55:39;;;;;;;4.15;1.20;;;;;;;2.75;100.00;97498.19;5072707;28;20037;-70
2021/12/05 03:58:04;;;;;;;6.80;0.75;;;;;;;2.55;100.00;97490.75;5080319;28;20101;-70
2021/12/05 04:00:35;;;;;;;4.05;0.90;;;;;;;2.59;100.00;97492.06;5082674;28;20059;-70
2021/12/05 04:03:03;;;;;;;6.75;1.27;;;;;;;2.74;100.00;97510.72;5071805;28;20035;-70
2021/12/05 04:05:31;;;;;;;3.20;1.00;;;;;;;2.70;100.00;97498.75;5073195;28;20021;-70
2021/12/05 04:07:57;;;;;;;4.35;0.88;;;;;;;2.79;100.00;97513.66;5084383;28;20031;-69
2021/12/05 04:10:25;;;;;;;5.10;1.20;;;;;;;2.85;100.00;97509.41;5070887;28;20025;-70
2021/12/05 04:12:51;;;;;;;4.20;1.00;;;;;;;2.82;100.00;97496.44;5082435;28;20482;-70
2021/12/05 04:15:17;;;;;;;6.20;1.00;;;;;;;2.67;100.00;97506.28;5076243;28;20043;-70
2021/12/05 04:17:43;;;;;;;2.80;0.90;;;;;;;2.63;100.00;97516.53;5080531;28;20086;-69
2021/12/05 04:20:11;;;;;;;7.03;0.90;;;;;;;2.42;100.00;97482.56;5083274;28;20024;-70
2021/12/05 04:22:37;;;;;;;5.03;0.90;;;;;;;2.48;100.00;97499.69;5078094;28;20035;-70
2021/12/05 04:25:08;;;;;;;9.50;1.40;;;;;;;2.56;100.00;97512.94;5064710;28;20086;-70
2021/12/05 04:27:33;;;;;;;5.32;1.50;;;;;;;2.56;100.00;97510.25;5077782;28;20111;-70
2021/12/05 04:29:58;;;;;;;2.83;1.15;;;;;;;2.59;100.00;97521.44;5088935;28;20106;-70
2021/12/05 04:32:24;;;;;;;8.20;1.48;;;;;;;2.64;100.00;97512.84;5075759;28;20032;-70
2021/12/05 04:34:49;;;;;;;5.22;1.30;;;;;;;2.76;100.00;97516.72;5077850;28;20699;-70
2021/12/05 04:37:14;;;;;;;4.35;1.30;;;;;;;2.66;100.00;97512.66;5076696;28;20016;-70
2021/12/05 04:39:40;;;;;;;4.35;1.10;;;;;;;2.58;100.00;97508.25;5082216;28;20082;-70
2021/12/05 04:42:05;;;;;;;3.08;1.10;;;;;;;2.79;100.00;97521.66;5075044;28;20025;-70
2021/12/05 04:44:32;;;;;;;6.47;1.55;;;;;;;2.85;100.00;97520.91;5083423;28;20493;-70
2021/12/05 04:47:00;;;;;;;6.90;2.10;;;;;;;2.72;100.00;97515.41;5073211;28;20059;-70
2021/12/05 04:49:25;;;;;;;7.63;2.08;;;;;;;2.80;100.00;97522.50;5082422;28;20021;-70
2021/12/05 04:51:50;;;;;;;3.78;1.40;;;;;;;2.70;100.00;97512.13;5086686;28;20542;-70
2021/12/05 04:54:19;;;;;;;7.93;1.10;;;;;;;2.84;100.00;97508.59;5069177;28;20040;-70
2021/12/05 04:56:48;;;;;;;8.50;1.50;;;;;;;2.75;100.00;97509.72;5082070;28;20028;-70
2021/12/05 04:59:14;;;;;;;3.07;1.00;;;;;;;2.67;100.00;97523.13;5077650;28;20052;-70
2021/12/05 05:01:43;;;;;;;6.72;1.33;;;;;;;2.81;100.00;97513.50;5085208;28;20431;-70
2021/12/05 05:04:21;;;;;;;5.95;1.23;;;;;;;2.71;100.00;97528.97;5076613;28;20087;-70
2021/12/05 05:06:47;;;;;;;4.07;1.10;;;;;;;2.69;100.00;97528.31;5084295;28;20403;-70
2021/12/05 05:09:12;;;;;;;5.80;1.23;;;;;;;2.66;100.00;97526.84;5073413;28;20107;-70
2021/12/05 05:11:39;;;;;;;5.35;1.30;;;;;;;2.58;100.00;97513.59;5081884;28;20526;-70
2021/12/05 05:14:04;;;;;;;7.22;1.10;;;;;;;2.61;100.00;97521.22;5080449;28;20393;-70
2021/12/05 05:16:30;;;;;;;4.05;1.38;;;;;;;2.59;100.00;97515.22;5089158;28;20024;-70
2021/12/05 05:18:58;;;;;;;3.88;1.17;;;;;;;2.57;100.00;97517.28;5076461;28;20085;-70
2021/12/05 05:27:18;;;;;;;6.85;1.00;;;;;;;2.50;100.00;97524.34;5085660;28;20599;-70
2021/12/05 05:41:23;;;;;;;2.78;0.88;;;;;;;2.53;100.00;97529.31;5072608;28;20449;-70
2021/12/05 05:44:05;;;;;;;4.43;1.00;;;;;;;2.56;100.00;97532.44;5075245;28;20036;-70
2021/12/05 05:49:17;;;;;;;5.75;1.60;;;;;;;2.44;100.00;97541.94;5079707;28;20035;-70
2021/12/05 05:51:42;;;;;;;1.58;0.75;;;;;;;2.44;99.46;97541.94;5082530;28;20027;-70
2021/12/05 05:54:08;;;;;;;3.22;0.82;;;;;;;2.40;99.84;97537.97;5072161;28;20043;-70
2021/12/05 05:56:35;;;;;;;3.20;0.93;;;;;;;2.36;100.00;97537.50;5063147;28;20436;-75
2021/12/05 05:59:07;;;;;;;5.05;1.20;;;;;;;2.16;99.59;97509.69;5096977;28;20023;-73
2021/12/05 06:04:04;;;;;;;4.22;1.10;;;;;;;2.34;99.06;97536.84;5103830;28;20031;-74
2021/12/05 06:06:38;;;;;;;7.40;1.25;;;;;;;2.32;99.33;97546.88;5105851;28;20027;-74
2021/12/05 06:09:03;;;;;;;6.75;1.02;;;;;;;2.21;100.00;97531.31;5097625;28;20509;-72
2021/12/05 06:11:29;;;;;;;4.57;0.95;;;;;;;2.17;100.00;97527.34;5102242;28;20025;-73
2021/12/05 06:13:54;;;;;;;6.03;0.80;;;;;;;2.12;100.00;97524.38;5085954;28;20071;-66
2021/12/05 06:16:20;;;;;;;6.70;0.95;;;;;;;2.08;100.00;97534.59;5074633;28;20032;-72
2021/12/05 06:18:46;;;;;;;2.97;0.93;;;;;;;2.02;100.00;97535.34;5069339;28;20111;-72
2021/12/05 06:21:13;;;;;;;5.07;1.05;;;;;;;1.95;100.00;97535.22;5074578;28;20024;-71
2021/12/05 06:23:40;;;;;;;3.13;0.70;;;;;;;1.93;100.00;97536.41;5078009;28;20465;-71
2021/12/05 06:26:08;;;;;;;4.80;1.30;;;;;;;1.83;100.00;97533.97;5070242;28;20020;-71
2021/12/05 06:28:39;;;;;;;3.10;1.60;;;;;;;1.75;100.00;97536.72;5070989;28;20474;-72
2021/12/05 06:31:26;;;;;;;4.47;1.75;;;;;;;1.71;100.00;97530.09;5073199;28;20073;-74
2021/12/05 06:36:57;;;;;;;6.28;1.35;;;;;;;1.51;100.00;97533.22;5083114;28;20047;-74
2021/12/05 06:39:39;;;;;;;2.28;0.95;;;;;;;1.62;100.00;97541.81;5069799;28;20024;-73
2021/12/05 06:47:33;;;;;;;4.28;1.40;;;;;;;1.83;100.00;97551.81;5079700;28;20056;-73
2021/12/05 06:49:59;;;;;;;5.28;1.42;;;;;;;1.88;100.00;97560.94;5077701;28;20469;-74
2021/12/05 06:52:25;;;;;;;11.48;1.52;;;;;;;1.92;100.00;97564.09;5086154;28;20027;-73
2021/12/05 06:54:50;;;;;;;9.90;2.80;;;;;;;1.30;100.00;97472.56;5100441;22;20092;-74
2021/12/05 06:57:17;;;;;;;11.32;4.18;;;;;;;1.59;100.00;97508.34;5039345;28;20033;-73
2021/12/05 06:59:45;;;;;;;3.92;1.80;;;;;;;2.10;100.00;97563.78;5052659;28;20051;-74
2021/12/05 07:02:12;;;;;;;3.28;1.27;;;;;;;2.05;100.00;97556.31;5036935;28;20039;-70
2021/12/05 07:07:04;;;;;;;7.78;1.80;;;;;;;2.00;100.00;97571.19;5062166;28;20431;-66
2021/12/05 07:09:30;;;;;;;4.40;1.27;;;;;;;1.84;100.00;97575.66;5060795;28;20024;-66
2021/12/05 07:12:44;;;;;;;8.93;1.23;;;;;;;1.58;100.00;97538.69;5065932;28;20394;-67
2021/12/05 07:22:42;;;;;;;2.45;0.95;;;;;;;1.48;100.00;97544.25;5066445;28;20027;-68
2021/12/05 07:25:13;;;;;;;6.72;1.00;;;;;;;1.59;100.00;97558.16;5060710;28;20512;-68
2021/12/05 07:41:23;;;;;;;3.55;0.90;;;;;;;1.65;100.00;97582.28;5071816;28;20112;-73
2021/12/05 07:43:49;;;;;;;5.32;1.60;;;;;;;1.58;100.00;97560.00;5053693;28;20016;-69
2021/12/05 07:46:14;;;;;;;3.47;1.30;;;;;;;1.69;100.00;97577.44;5065768;28;20023;-69
2021/12/05 07:48:43;;;;;;;8.25;2.08;;;;;;;1.60;100.00;97562.47;5052141;28;20020;-72
2021/12/05 07:53:52;;;;;;;9.05;2.38;;;;;;;1.97;100.00;97588.41;5067762;28;20039;-67
2021/12/05 07:56:31;;;;;;;5.65;2.15;;;;;;;2.09;99.43;97589.59;5066456;28;20020;-67
2021/12/05 08:17:35;;;;;;;15.93;5.18;;;;;;;3.22;91.32;97567.25;5072251;28;20063;-75
2021/12/05 08:20:01;;;;;;;7.53;2.25;;;;;;;3.61;88.74;97578.56;5054147;28;20040;-70
2021/12/05 08:22:26;;;;;;;10.25;3.15;;;;;;;3.46;89.17;97568.75;5068052;28;20028;-71
2021/12/05 08:24:51;;;;;;;8.02;2.85;;;;;;;3.63;88.45;97553.28;5067971;28;20020;-71
2021/12/05 08:27:17;;;;;;;6.68;2.30;;;;;;;4.25;83.76;97580.41;5068496;28;20104;-70
2021/12/05 08:35:09;;;;;;;8.75;3.60;;;;;;;4.17;86.19;97579.53;5072788;28;20034;-70
2021/12/05 08:40:31;;;;;;;11.13;3.53;;;;;;;4.76;85.66;97572.13;5068057;28;20504;-71
2021/12/05 08:43:22;;;;;;;8.43;2.15;;;;;;;4.81;81.42;97570.50;5066323;28;20039;-71
2021/12/05 09:26:39;;;;;;;5.47;1.20;;;;;;;13.57;46.68;97573.81;5067937;28;20090;-74
2021/12/05 10:11:49;;;;;;;2.78;1.10;;;;;;;6.68;68.91;97563.78;5071536;28;20043;-71
2021/12/05 10:14:28;;;;;;;4.20;1.40;;;;;;;6.84;69.40;97565.19;5069855;28;20176;-70
2021/12/05 10:17:29;;;;;;;3.58;1.50;;;;;;;6.92;69.95;97564.13;5065044;28;20087;-70
2021/12/05 10:20:15;;;;;;;4.75;1.48;;;;;;;7.58;67.33;97545.03;5065024;28;20043;-70
2021/12/05 10:34:34;;;;;;;7.65;1.70;;;;;;;10.04;58.45;97541.78;5065552;28;20027;-70
2021/12/05 10:37:12;;;;;;;7.70;2.00;;;;;;;9.35;59.60;97539.41;5072968;28;20086;-70
2021/12/05 10:39:39;;;;;;;4.13;1.38;;;;;;;8.75;62.17;97550.84;5064137;28;20045;-70
2021/12/05 10:42:40;;;;;;;2.95;1.45;;;;;;;8.00;63.78;97553.50;5069752;28;20040;-71
2021/12/05 10:45:37;;;;;;;3.17;1.30;;;;;;;7.82;66.22;97551.53;5054068;28;20382;-70
2021/12/05 10:48:07;;;;;;;2.53;1.00;;;;;;;8.22;65.00;97556.63;5055804;28;20456;-72
2021/12/05 10:50:35;;;;;;;1.40;0.70;;;;;;;7.98;65.80;97555.56;5067436;28;20032;-70
2021/12/05 10:53:34;;;;;;;4.22;0.95;;;;;;;7.85;65.58;97553.78;5071066;28;20020;-70
2021/12/05 10:56:00;;;;;;;;;;;;;;;7.59;67.59;97553.94;5067819;28;20024;-70
2021/12/05 10:58:52;;;;;;;2.55;0.82;;;;;;;7.26;67.77;97549.56;5082029;28;19923;-71
2021/12/05 11:01:42;;;;;;;3.28;0.95;;;;;;;6.86;68.30;97562.28;5060641;28;20070;-70
2021/12/05 11:04:24;;;;;;;4.13;0.98;;;;;;;6.63;70.37;97558.19;5062334;28;20031;-71
2021/12/05 11:07:08;;;;;;;1.95;0.90;;;;;;;6.49;72.48;97530.50;5065832;28;20521;-70
2021/12/05 11:09:36;;;;;;;1.02;0.52;;;;;;;6.62;70.93;97553.84;5064804;28;20036;-70
2021/12/05 11:12:14;;;;;;;1.67;0.60;;;;;;;7.07;70.04;97540.50;5064844;28;20042;-71
2021/12/05 11:14:47;;;;;;;1.60;0.70;;;;;;;8.07;67.06;97532.72;5072737;28;20901;-71
2021/12/05 11:17:16;;;;;;;3.30;0.70;;;;;;;10.70;59.01;97524.50;5065932;28;20039;-70
2021/12/05 11:19:47;;;;;;;2.05;0.90;;;;;;;14.02;50.24;97512.06;5066085;28;20043;-71
2021/12/05 11:22:18;;;;;;;3.35;0.70;;;;;;;15.45;44.96;97507.59;5062508;28;20064;-71
2021/12/05 11:25:00;;;;;;;3.70;0.57;;;;;;;16.19;42.68;97502.88;5066274;28;20032;-72
2021/12/05 11:27:37;;;;;;;1.70;0.60;;;;;;;16.47;42.63;97504.28;5060658;28;20017;-72
2021/12/05 11:30:05;;;;;;;2.80;0.50;;;;;;;15.12;42.83;97508.81;5050504;28;20040;-72
2021/12/05 11:32:54;;;;;;;2.17;0.50;;;;;;;16.67;42.64;97508.09;5048432;28;20059;-72
2021/12/05 11:35:42;;;;;;;2.05;0.60;;;;;;;16.98;39.73;97495.25;5066917;28;20036;-71
2021/12/05 11:38:15;;;;;;;1.42;0.60;;;;;;;17.96;38.09;97500.03;5060972;28;20082;-72
2021/12/05 11:40:40;;;;;;;2.63;0.60;;;;;;;18.23;37.26;97497.94;5062508;28;20371;-71
2021/12/05 11:43:06;;;;;;;1.77;0.65;;;;;;;19.19;36.09;97495.44;5072461;28;20027;-71
2021/12/05 11:45:49;;;;;;;2.78;0.65;;;;;;;18.62;36.32;97486.94;5064148;28;20116;-71
2021/12/05 11:48:21;;;;;;;1.83;0.60;;;;;;;16.35;40.74;97485.44;5065150;28;20028;-71
2021/12/05 11:50:48;;;;;;;1.92;0.70;;;;;;;14.01;46.22;97507.66;5058795;28;20127;-71
2021/12/05 11:53:14;;;;;;;0.40;0.40;;;;;;;12.50;49.60;97504.41;5059368;28;20036;-71
2021/12/05 11:55:39;;;;;;;1.52;0.47;;;;;;;10.88;53.01;97496.47;5064346;28;20044;-71
2021/12/05 11:58:15;;;;;;;1.42;0.57;;;;;;;9.96;55.73;97523.19;5066299;28;20024;-71
2021/12/05 12:00:42;;;;;;;2.70;0.60;;;;;;;9.59;56.24;97502.53;5065099;28;20136;-71
2021/12/05 12:03:08;;;;;;;0.93;0.40;;;;;;;9.32;57.47;97514.72;5068673;28;20109;-71
2021/12/05 12:05:37;;;;;;;2.70;0.60;;;;;;;9.75;57.84;97495.66;5066437;28;20024;-71
2021/12/05 12:08:12;;;;;;;1.75;0.68;;;;;;;12.41;51.91;97509.41;5068725;28;20020;-72
2021/12/05 12:10:42;;;;;;;1.52;0.50;;;;;;;15.03;44.66;97505.75;5064458;28;20063;-71
2021/12/05 12:13:20;;;;;;;0.70;0.20;;;;;;;16.71;40.56;97484.59;5068867;28;20028;-71
2021/12/05 12:15:58;;;;;;;1.42;0.40;;;;;;;18.46;37.25;97475.31;5049892;28;20025;-71
2021/12/05 12:18:28;;;;;;;0.70;0.28;;;;;;;18.87;36.06;97482.38;5068351;28;20608;-71
2021/12/05 12:20:56;;;;;;;1.30;0.50;;;;;;;17.62;36.70;97490.91;5069342;28;20440;-71
2021/12/05 12:23:22;;;;;;;1.58;0.40;;;;;;;17.34;36.97;97495.94;5067625;28;20013;-71
2021/12/05 12:25:54;;;;;;;2.67;0.50;;;;;;;18.41;36.04;97486.28;5058615;28;20692;-71
2021/12/05 12:28:20;;;;;;;1.00;0.40;;;;;;;18.49;35.87;97471.16;5056477;28;20044;-71
2021/12/05 12:30:52;;;;;;;0.65;0.30;;;;;;;16.50;39.12;97465.50;5063641;28;20496;-71
2021/12/05 12:33:41;;;;;;;2.05;0.40;;;;;;;13.46;45.92;97492.41;5069209;28;20037;-71
2021/12/05 12:36:07;;;;;;;2.08;0.52;;;;;;;11.32;51.12;97502.28;5054982;28;20028;-71
2021/12/05 12:38:34;;;;;;;1.67;0.40;;;;;;;9.93;55.41;97502.88;5060129;28;20037;-71
2021/12/05 12:41:04;;;;;;;1.70;0.50;;;;;;;9.20;57.28;97501.19;5068849;28;20038;-70
2021/12/05 12:43:48;;;;;;;2.33;0.50;;;;;;;8.60;60.06;97498.31;5069247;28;20029;-72
2021/12/05 12:46:58;;;;;;;0.98;0.50;;;;;;;8.41;60.99;97502.84;5065153;28;20048;-72
2021/12/05 12:49:44;;;;;;;2.20;0.57;;;;;;;7.97;62.07;97504.63;5060713;28;20435;-72
2021/12/05 12:52:14;;;;;;;2.47;0.45;;;;;;;7.55;63.95;97512.38;5065545;28;20043;-71
2021/12/05 12:54:43;;;;;;;1.20;0.52;;;;;;;7.30;66.01;97515.78;5072587;28;20029;-70
2021/12/05 12:57:14;;;;;;;1.58;0.60;;;;;;;7.07;68.14;97504.72;5055637;28;20362;-71
2021/12/05 13:00:00;;;;;;;1.10;0.47;;;;;;;6.98;68.77;97507.63;5071211;28;20029;-70
2021/12/05 13:07:21;;;;;;;2.25;0.68;;;;;;;6.37;70.53;97456.97;5037256;28;20123;-71
2021/12/05 13:11:10;;;;;;;0.82;0.30;;;;;;;6.91;70.01;97517.59;5067581;28;20508;-70
2021/12/05 13:13:38;;;;;;;1.63;0.38;;;;;;;9.06;64.57;97516.69;5070764;28;20044;-71
2021/12/05 13:16:12;;;;;;;0.68;0.40;;;;;;;10.63;57.34;97512.97;5053328;28;20031;-71
2021/12/05 13:18:40;;;;;;;1.23;0.30;;;;;;;10.72;56.58;97511.56;5064738;28;20035;-71
2021/12/05 13:21:10;;;;;;;0.63;0.32;;;;;;;9.78;58.17;97522.19;5072322;28;20028;-71
2021/12/05 13:23:40;;;;;;;2.35;0.60;;;;;;;8.84;59.62;97513.63;5068779;28;20036;-72
2021/12/05 13:26:16;;;;;;;2.70;0.80;;;;;;;8.45;59.39;97512.94;5050348;28;20020;-71
2021/12/05 13:28:50;;;;;;;5.53;0.70;;;;;;;8.18;60.51;97501.56;5065135;28;20124;-72
2021/12/05 13:31:27;;;;;;;1.10;0.43;;;;;;;7.74;63.45;97515.97;5066810;28;20025;-71
2021/12/05 13:34:44;;;;;;;1.05;0.50;;;;;;;7.37;63.57;97529.22;5070664;28;20028;-71
2021/12/05 13:37:09;;;;;;;3.08;0.57;;;;;;;6.95;65.27;97524.19;5037502;28;20044;-71
2021/12/05 13:39:34;;;;;;;1.23;0.52;;;;;;;6.67;66.07;97529.84;5072082;28;20103;-71
2021/12/05 13:42:25;;;;;;;0.75;0.40;;;;;;;6.40;67.77;97530.94;5067030;28;20021;-71
2021/12/05 13:45:03;;;;;;;2.30;1.00;;;;;;;6.19;69.54;97553.47;5043642;28;20064;-71
2021/12/05 13:47:32;;;;;;;2.00;0.40;;;;;;;6.03;70.27;97538.56;5052503;28;20025;-72
2021/12/05 13:50:16;;;;;;;1.58;0.50;;;;;;;5.82;70.12;97545.75;5058361;28;20107;-71
2021/12/05 13:52:45;;;;;;;1.13;0.43;;;;;;;5.65;69.93;97539.91;5039758;28;20029;-71
2021/12/05 13:55:36;;;;;;;3.22;0.60;;;;;;;5.61;71.01;97548.59;5054195;28;20028;-70
2021/12/05 13:58:25;;;;;;;2.20;0.47;;;;;;;5.58;73.42;97562.38;5032715;28;20094;-71
2021/12/05 14:00:53;;;;;;;2.50;0.70;;;;;;;5.65;73.21;97557.88;5068874;28;20035;-71
2021/12/05 14:03:56;;;;;;;0.70;0.52;;;;;;;5.60;73.79;97561.16;5053092;28;20032;-70
2021/12/05 14:06:27;;;;;;;2.45;1.05;;;;;;;5.51;74.99;97573.13;5062602;28;20077;-70
2021/12/05 14:08:56;;;;;;;1.60;0.47;;;;;;;5.31;75.64;97556.94;5071692;28;20040;-70
2021/12/05 14:11:23;;;;;;;0.73;0.50;;;;;;;5.15;75.75;97578.75;5066820;28;20047;-70
2021/12/05 14:13:49;;;;;;;1.58;0.50;;;;;;;5.10;78.28;97578.50;5072140;28;20045;-70
2021/12/05 14:16:14;;;;;;;1.15;0.50;;;;;;;4.66;76.52;97585.88;5056510;28;20142;-71
2021/12/05 14:18:40;;;;;;;1.60;0.80;;;;;;;4.34;78.97;97593.47;5078449;28;20393;-70
2021/12/05 14:21:17;;;;;;;0.95;0.60;;;;;;;3.74;80.46;97539.41;5067890;28;20542;-70
2021/12/05 14:23:50;;;;;;;1.20;0.65;;;;;;;4.09;80.46;97586.88;5079474;28;20021;-69
2021/12/05 14:26:19;;;;;;;1.30;0.50;;;;;;;4.29;81.72;97595.88;5072978;28;20020;-70
2021/12/05 14:28:55;;;;;;;2.58;1.27;;;;;;;4.50;80.88;97597.69;5076617;28;20493;-70
2021/12/05 14:31:29;;;;;;;1.23;0.52;;;;;;;4.57;80.22;97595.91;5076453;28;20036;-70
2021/12/05 14:33:55;;;;;;;1.00;0.32;;;;;;;4.69;79.07;97601.56;5073304;28;20543;-70
2021/12/05 14:36:30;;;;;;;1.33;0.50;;;;;;;4.71;79.78;97606.72;5070717;28;20032;-70
2021/12/05 14:39:10;;;;;;;1.92;0.50;;;;;;;4.59;82.41;97612.63;5061773;28;20110;-71
2021/12/05 14:41:38;;;;;;;1.27;0.55;;;;;;;4.47;84.58;97606.13;5078370;28;20032;-71
2021/12/05 14:44:04;;;;;;;1.23;0.40;;;;;;;4.55;84.83;97616.69;5068131;28;20107;-70
2021/12/05 14:46:30;;;;;;;1.08;0.57;;;;;;;4.33;83.55;97573.06;5098846;28;20087;-70
2021/12/05 14:49:03;;;;;;;1.15;0.60;;;;;;;4.58;82.84;97619.00;5076374;28;20138;-70
2021/12/05 14:51:35;;;;;;;2.35;1.10;;;;;;;4.31;85.82;97611.78;5080152;28;20747;-69
2021/12/05 14:54:01;;;;;;;1.75;0.60;;;;;;;4.26;87.17;97598.94;5074847;28;20028;-70
2021/12/05 14:56:31;;;;;;;3.65;1.50;;;;;;;4.28;88.27;97606.81;5057867;28;20021;-70
2021/12/05 14:59:13;;;;;;;4.63;2.25;;;;;;;4.41;88.53;97622.97;5073962;28;20029;-70
2021/12/05 15:01:42;;;;;;;3.10;1.35;;;;;;;4.37;88.11;97624.38;5068321;28;20054;-70
2021/12/05 15:04:10;;;;;;;8.80;2.65;;;;;;;4.05;88.92;97607.00;5078385;28;20028;-70
2021/12/05 15:06:42;;;;;;;5.05;2.50;;;;;;;3.99;90.67;97613.94;5065691;28;20036;-70
2021/12/05 15:09:19;;;;;;;6.50;3.05;;;;;;;4.01;90.54;97630.66;5078099;28;20031;-70
2021/12/05 15:11:51;;;;;;;12.38;3.90;;;;;;;3.86;91.76;97624.53;5049280;28;20029;-70
2021/12/05 15:14:18;;;;;;;8.30;2.65;;;;;;;3.55;92.11;97622.09;5082794;28;20416;-70
2021/12/05 15:16:57;;;;;;;4.78;2.25;;;;;;;3.49;93.34;97651.25;5057789;28;20028;-70
2021/12/05 15:19:22;;;;;;;3.58;1.40;;;;;;;3.27;93.48;97652.19;5078916;28;20076;-71
2021/12/05 15:21:48;;;;;;;3.92;1.30;;;;;;;3.05;95.30;97652.09;5064638;28;20031;-70
2021/12/05 15:24:15;;;;;;;3.35;1.48;;;;;;;2.95;96.04;97656.06;5072823;28;20075;-70
2021/12/05 15:26:41;;;;;;;2.53;1.15;;;;;;;2.70;96.74;97656.31;5073055;28;20020;-70
2021/12/05 15:29:06;;;;;;;14.00;8.68;;;;;;;2.33;98.08;97627.78;5070586;28;20494;-70
2021/12/05 15:31:37;;;;;;;5.85;3.65;;;;;;;2.17;99.34;97618.06;5075291;28;20109;-70
2021/12/05 15:34:20;;;;;;;7.43;4.88;;;;;;;2.24;100.00;97666.22;5079909;28;20024;-70
2021/12/05 15:36:46;;;;;;;5.82;3.25;;;;;;;2.09;100.00;97655.47;5071162;28;20040;-70
2021/12/05 15:39:20;;;;;;;19.17;9.90;;;;;;;2.01;100.00;97645.69;5078488;28;20029;-70
2021/12/05 15:41:55;;;;;;;20.60;9.38;;;;;;;2.00;100.00;97673.41;5082088;28;20028;-71
2021/12/05 15:44:27;;;;;;;15.35;8.48;;;;;;;1.92;100.00;97678.78;5063487;28;20032;-72
2021/12/05 15:47:08;;;;;;;9.45;4.97;;;;;;;1.87;100.00;97676.63;5065820;28;20023;-71
2021/12/05 15:50:32;;;;;;;8.13;5.25;;;;;;;1.74;100.00;97687.03;5053069;28;20552;-70
2021/12/05 15:53:10;;;;;;;7.45;3.85;;;;;;;1.69;100.00;97681.41;5045606;28;20044;-71
2021/12/05 15:55:44;;;;;;;17.52;8.82;;;;;;;1.68;100.00;97677.09;5079979;28;20477;-69
2021/12/05 15:58:19;;;;;;;14.60;7.78;;;;;;;1.63;100.00;97688.28;5069688;28;20090;-69
2021/12/05 16:00:48;;;;;;;8.65;4.47;;;;;;;1.64;100.00;97691.75;5068910;28;20211;-70
2021/12/05 16:03:16;;;;;;;;;;;;;;;1.73;100.00;97693.41;5073694;28;20098;-70
2021/12/05 16:05:44;;;;;;;6.07;3.65;;;;;;;1.71;100.00;97693.56;5077015;28;20445;-70
2021/12/05 16:08:17;;;;;;;6.53;3.25;;;;;;;1.69;100.00;97697.41;5055077;28;20060;-70
2021/12/05 16:10:48;;;;;;;4.05;2.70;;;;;;;1.69;100.00;97694.75;5082317;28;20026;-70
2021/12/05 16:13:24;;;;;;;2.95;1.88;;;;;;;1.57;100.00;97694.28;5076547;28;20036;-70
2021/12/05 16:15:52;;;;;;;6.10;2.53;;;;;;;1.49;100.00;97692.50;5046702;28;20024;-70
2021/12/05 16:18:19;;;;;;;6.60;3.07;;;;;;;1.43;100.00;97681.69;5072434;28;20023;-70
2021/12/05 16:20:51;;;;;;;8.15;3.78;;;;;;;1.31;100.00;97694.56;5082420;28;20284;-70
2021/12/05 16:23:20;;;;;;;9.48;6.70;;;;;;;1.36;100.00;97699.38;5075815;28;20050;-71
2021/12/05 16:25:45;;;;;;;11.45;6.82;;;;;;;1.34;100.00;97704.88;5079695;28;20065;-71
2021/12/05 16:28:12;;;;;;;7.05;5.20;;;;;;;1.17;100.00;97689.94;5066672;28;20036;-70
2021/12/05 16:30:47;;;;;;;5.45;3.70;;;;;;;1.12;100.00;97687.78;5063886;28;20024;-70
2021/12/05 16:33:14;;;;;;;12.60;6.40;;;;;;;1.17;100.00;97719.25;5060614;28;20046;-71
2021/12/05 16:35:51;;;;;;;10.48;7.20;;;;;;;1.08;100.00;97713.13;5080571;28;20116;-70
2021/12/05 16:38:29;;;;;;;9.57;4.85;;;;;;;0.95;100.00;97708.31;5084860;28;20029;-70
2021/12/05 16:41:17;;;;;;;8.27;5.80;;;;;;;0.85;100.00;97702.34;5079489;28;20053;-70
2021/12/05 16:44:09;;;;;;;8.65;4.30;;;;;;;0.94;100.00;97721.78;5083080;28;20493;-70
2021/12/05 16:46:44;;;;;;;9.07;4.57;;;;;;;0.84;100.00;97714.81;5067607;28;20044;-70
2021/12/05 16:49:14;;;;;;;10.60;4.47;;;;;;;0.75;100.00;97718.47;5076331;28;20028;-70
2021/12/05 16:51:45;;;;;;;6.60;3.85;;;;;;;0.54;100.00;97705.69;5066331;28;20051;-70
2021/12/05 16:54:30;;;;;;;5.22;2.97;;;;;;;0.53;100.00;97722.66;5081111;28;20036;-70
2021/12/05 16:57:01;;;;;;;4.53;2.78;;;;;;;0.53;100.00;97714.69;5078043;28;20413;-70
2021/12/05 16:59:37;;;;;;;6.55;3.15;;;;;;;0.57;100.00;97715.16;5056910;28;20032;-70
2021/12/05 17:02:09;;;;;;;6.88;3.70;;;;;;;0.51;100.00;97721.16;5083989;28;20032;-70
2021/12/05 17:04:49;;;;;;;7.45;5.53;;;;;;;0.50;100.00;97714.16;5072939;28;20502;-70
2021/12/05 17:07:35;;;;;;;7.60;4.90;;;;;;;0.49;100.00;97721.31;5080075;28;20083;-71
2021/12/05 17:10:01;;;;;;;8.82;6.15;;;;;;;0.37;100.00;97720.84;5094850;28;20028;-69